sensor_id;sensor_type;location;lat;lon;timestamp;P1;durP1;ratioP1;P2;durP2;ratioP2
76689;SDS011;65623;44.498;0.166;2023-05-07T00:04:21;14.13;;;2.47;;
76689;SDS011;65623;44.498;0.166;2023-05-07T00:09:54;15.20;;;4.07;;
76689;SDS011;65623;44.498;0.166;2023-05-07T00:15:26;13.00;;;3.10;;
76689;SDS011;65623;44.498;0.166;2023-05-07T00:21:00;17.53;;;4.03;;
76689;SDS011;65623;44.498;0.166;2023-05-07T00:26:33;15.87;;;2.97;;
76689;SDS011;65623;44.498;0.166;2023-05-07T00:32:05;12.30;;;2.63;;
76689;SDS011;65623;44.498;0.166;2023-05-07T00:37:39;14.27;;;2.83;;
76689;SDS011;65623;44.498;0.166;2023-05-07T00:54:17;23.13;;;3.20;;
76689;SDS011;65623;44.498;0.166;2023-05-07T00:59:50;19.70;;;3.20;;
76689;SDS011;65623;44.498;0.166;2023-05-07T01:05:23;11.03;;;3.43;;
76689;SDS011;65623;44.498;0.166;2023-05-07T01:10:55;9.87;;;2.53;;
76689;SDS011;65623;44.498;0.166;2023-05-07T01:16:27;8.67;;;2.33;;
76689;SDS011;65623;44.498;0.166;2023-05-07T01:22:02;14.67;;;3.47;;
76689;SDS011;65623;44.498;0.166;2023-05-07T01:27:33;8.53;;;2.70;;
76689;SDS011;65623;44.498;0.166;2023-05-07T01:33:08;10.40;;;2.83;;
76689;SDS011;65623;44.498;0.166;2023-05-07T01:38:40;19.07;;;4.53;;
76689;SDS011;65623;44.498;0.166;2023-05-07T01:44:13;8.07;;;3.37;;
76689;SDS011;65623;44.498;0.166;2023-05-07T02:11:57;12.50;;;3.70;;
76689;SDS011;65623;44.498;0.166;2023-05-07T02:17:29;20.43;;;3.47;;
76689;SDS011;65623;44.498;0.166;2023-05-07T02:23:02;16.80;;;2.87;;
76689;SDS011;65623;44.498;0.166;2023-05-07T02:28:36;12.73;;;3.30;;
76689;SDS011;65623;44.498;0.166;2023-05-07T02:34:09;13.87;;;3.77;;
76689;SDS011;65623;44.498;0.166;2023-05-07T02:39:42;23.30;;;4.47;;
76689;SDS011;65623;44.498;0.166;2023-05-07T02:45:15;17.13;;;3.33;;
76689;SDS011;65623;44.498;0.166;2023-05-07T02:50:47;8.80;;;2.93;;
76689;SDS011;65623;44.498;0.166;2023-05-07T02:56:20;16.93;;;3.93;;
76689;SDS011;65623;44.498;0.166;2023-05-07T03:01:54;17.70;;;4.33;;
76689;SDS011;65623;44.498;0.166;2023-05-07T03:07:28;21.63;;;5.10;;
76689;SDS011;65623;44.498;0.166;2023-05-07T03:13:02;27.17;;;4.53;;
76689;SDS011;65623;44.498;0.166;2023-05-07T03:18:34;17.33;;;3.80;;
76689;SDS011;65623;44.498;0.166;2023-05-07T03:24:07;13.60;;;3.50;;
76689;SDS011;65623;44.498;0.166;2023-05-07T03:29:41;20.50;;;3.80;;
76689;SDS011;65623;44.498;0.166;2023-05-07T03:35:14;18.63;;;3.37;;
76689;SDS011;65623;44.498;0.166;2023-05-07T03:40:48;15.00;;;3.30;;
76689;SDS011;65623;44.498;0.166;2023-05-07T03:46:21;20.27;;;3.43;;
76689;SDS011;65623;44.498;0.166;2023-05-07T03:51:54;13.03;;;3.70;;
76689;SDS011;65623;44.498;0.166;2023-05-07T03:57:27;14.37;;;3.17;;
76689;SDS011;65623;44.498;0.166;2023-05-07T04:02:59;17.87;;;3.93;;
76689;SDS011;65623;44.498;0.166;2023-05-07T04:08:31;14.63;;;3.10;;
76689;SDS011;65623;44.498;0.166;2023-05-07T04:14:05;13.60;;;3.57;;
76689;SDS011;65623;44.498;0.166;2023-05-07T04:19:38;9.70;;;3.67;;
76689;SDS011;65623;44.498;0.166;2023-05-07T04:25:11;17.50;;;3.17;;
76689;SDS011;65623;44.498;0.166;2023-05-07T04:30:45;13.40;;;3.07;;
76689;SDS011;65623;44.498;0.166;2023-05-07T04:36:17;15.73;;;3.70;;
76689;SDS011;65623;44.498;0.166;2023-05-07T04:41:50;12.10;;;3.10;;
76689;SDS011;65623;44.498;0.166;2023-05-07T04:47:23;9.13;;;3.47;;
76689;SDS011;65623;44.498;0.166;2023-05-07T04:52:57;11.60;;;3.33;;
76689;SDS011;65623;44.498;0.166;2023-05-07T04:58:30;17.93;;;3.27;;
76689;SDS011;65623;44.498;0.166;2023-05-07T05:04:03;14.70;;;3.30;;
76689;SDS011;65623;44.498;0.166;2023-05-07T05:09:35;15.00;;;3.40;;
76689;SDS011;65623;44.498;0.166;2023-05-07T05:15:08;24.23;;;3.10;;
76689;SDS011;65623;44.498;0.166;2023-05-07T05:20:39;13.57;;;2.50;;
76689;SDS011;65623;44.498;0.166;2023-05-07T05:26:13;9.03;;;3.33;;
76689;SDS011;65623;44.498;0.166;2023-05-07T05:31:45;10.83;;;3.13;;
76689;SDS011;65623;44.498;0.166;2023-05-07T05:37:18;15.87;;;3.07;;
76689;SDS011;65623;44.498;0.166;2023-05-07T05:42:51;12.53;;;4.33;;
76689;SDS011;65623;44.498;0.166;2023-05-07T05:48:24;9.90;;;2.77;;
76689;SDS011;65623;44.498;0.166;2023-05-07T05:53:56;13.97;;;3.63;;
76689;SDS011;65623;44.498;0.166;2023-05-07T05:59:30;13.37;;;3.07;;
76689;SDS011;65623;44.498;0.166;2023-05-07T06:05:04;18.77;;;4.70;;
76689;SDS011;65623;44.498;0.166;2023-05-07T06:10:37;16.63;;;4.20;;
76689;SDS011;65623;44.498;0.166;2023-05-07T06:16:11;21.77;;;4.40;;
76689;SDS011;65623;44.498;0.166;2023-05-07T06:21:45;14.87;;;3.20;;
76689;SDS011;65623;44.498;0.166;2023-05-07T06:27:17;15.13;;;5.30;;
76689;SDS011;65623;44.498;0.166;2023-05-07T06:32:50;13.73;;;4.30;;
76689;SDS011;65623;44.498;0.166;2023-05-07T06:38:22;18.80;;;4.23;;
76689;SDS011;65623;44.498;0.166;2023-05-07T06:43:55;10.80;;;3.70;;
76689;SDS011;65623;44.498;0.166;2023-05-07T06:49:27;13.53;;;5.57;;
76689;SDS011;65623;44.498;0.166;2023-05-07T06:55:00;11.20;;;3.37;;
76689;SDS011;65623;44.498;0.166;2023-05-07T07:00:33;13.63;;;2.83;;
76689;SDS011;65623;44.498;0.166;2023-05-07T07:06:07;17.67;;;3.50;;
76689;SDS011;65623;44.498;0.166;2023-05-07T07:11:40;15.43;;;4.23;;
76689;SDS011;65623;44.498;0.166;2023-05-07T07:17:13;11.33;;;3.07;;
76689;SDS011;65623;44.498;0.166;2023-05-07T07:22:46;14.87;;;4.07;;
76689;SDS011;65623;44.498;0.166;2023-05-07T07:28:20;14.83;;;3.40;;
76689;SDS011;65623;44.498;0.166;2023-05-07T07:33:52;15.83;;;3.43;;
76689;SDS011;65623;44.498;0.166;2023-05-07T07:39:25;23.30;;;4.40;;
76689;SDS011;65623;44.498;0.166;2023-05-07T07:44:58;16.00;;;3.03;;
76689;SDS011;65623;44.498;0.166;2023-05-07T07:50:31;17.77;;;6.37;;
76689;SDS011;65623;44.498;0.166;2023-05-07T07:56:03;17.43;;;5.03;;
76689;SDS011;65623;44.498;0.166;2023-05-07T08:01:36;10.20;;;2.90;;
76689;SDS011;65623;44.498;0.166;2023-05-07T08:07:10;8.00;;;2.27;;
76689;SDS011;65623;44.498;0.166;2023-05-07T08:12:44;11.07;;;2.63;;
76689;SDS011;65623;44.498;0.166;2023-05-07T08:18:17;15.77;;;2.37;;
76689;SDS011;65623;44.498;0.166;2023-05-07T08:23:51;11.83;;;3.03;;
76689;SDS011;65623;44.498;0.166;2023-05-07T08:29:24;15.03;;;2.70;;
76689;SDS011;65623;44.498;0.166;2023-05-07T08:34:57;19.20;;;3.77;;
76689;SDS011;65623;44.498;0.166;2023-05-07T08:40:33;12.00;;;2.43;;
76689;SDS011;65623;44.498;0.166;2023-05-07T08:46:04;6.87;;;2.13;;
76689;SDS011;65623;44.498;0.166;2023-05-07T08:51:36;12.70;;;2.83;;
76689;SDS011;65623;44.498;0.166;2023-05-07T08:57:09;13.93;;;3.23;;
76689;SDS011;65623;44.498;0.166;2023-05-07T09:02:43;14.20;;;2.23;;
76689;SDS011;65623;44.498;0.166;2023-05-07T09:08:16;7.73;;;1.77;;
76689;SDS011;65623;44.498;0.166;2023-05-07T09:13:49;8.57;;;1.87;;
76689;SDS011;65623;44.498;0.166;2023-05-07T09:19:22;12.67;;;2.43;;
76689;SDS011;65623;44.498;0.166;2023-05-07T09:24:55;12.53;;;2.57;;
76689;SDS011;65623;44.498;0.166;2023-05-07T09:30:27;10.67;;;2.17;;
76689;SDS011;65623;44.498;0.166;2023-05-07T09:36:02;8.63;;;1.80;;
76689;SDS011;65623;44.498;0.166;2023-05-07T09:41:33;6.00;;;2.13;;
76689;SDS011;65623;44.498;0.166;2023-05-07T09:47:07;9.67;;;2.40;;
76689;SDS011;65623;44.498;0.166;2023-05-07T09:52:40;10.33;;;2.10;;
76689;SDS011;65623;44.498;0.166;2023-05-07T09:58:12;6.90;;;1.97;;
76689;SDS011;65623;44.498;0.166;2023-05-07T10:03:45;6.13;;;2.53;;
76689;SDS011;65623;44.498;0.166;2023-05-07T10:09:18;6.33;;;1.77;;
76689;SDS011;65623;44.498;0.166;2023-05-07T10:14:52;10.73;;;3.10;;
76689;SDS011;65623;44.498;0.166;2023-05-07T10:20:26;10.87;;;2.70;;
76689;SDS011;65623;44.498;0.166;2023-05-07T10:25:59;11.10;;;2.00;;
76689;SDS011;65623;44.498;0.166;2023-05-07T10:37:05;6.87;;;2.00;;
76689;SDS011;65623;44.498;0.166;2023-05-07T10:42:38;7.07;;;1.83;;
76689;SDS011;65623;44.498;0.166;2023-05-07T10:48:13;10.83;;;3.33;;
76689;SDS011;65623;44.498;0.166;2023-05-07T10:53:43;8.63;;;2.13;;
76689;SDS011;65623;44.498;0.166;2023-05-07T11:10:21;7.10;;;1.20;;
76689;SDS011;65623;44.498;0.166;2023-05-07T11:15:54;5.23;;;1.60;;
76689;SDS011;65623;44.498;0.166;2023-05-07T11:21:35;6.37;;;1.87;;
76689;SDS011;65623;44.498;0.166;2023-05-07T11:26:59;4.37;;;1.70;;
76689;SDS011;65623;44.498;0.166;2023-05-07T11:32:32;7.30;;;1.83;;
76689;SDS011;65623;44.498;0.166;2023-05-07T11:38:05;10.77;;;1.63;;
76689;SDS011;65623;44.498;0.166;2023-05-07T11:49:12;5.53;;;1.40;;
76689;SDS011;65623;44.498;0.166;2023-05-07T11:54:48;4.93;;;1.30;;
76689;SDS011;65623;44.498;0.166;2023-05-07T12:00:18;6.83;;;1.40;;
76689;SDS011;65623;44.498;0.166;2023-05-07T12:05:51;9.30;;;1.23;;
76689;SDS011;65623;44.498;0.166;2023-05-07T12:11:25;5.03;;;1.90;;
76689;SDS011;65623;44.498;0.166;2023-05-07T12:22:30;3.93;;;1.17;;
76689;SDS011;65623;44.498;0.166;2023-05-07T12:28:04;5.87;;;2.17;;
76689;SDS011;65623;44.498;0.166;2023-05-07T12:33:37;4.50;;;0.97;;
76689;SDS011;65623;44.498;0.166;2023-05-07T12:39:11;7.30;;;1.57;;
76689;SDS011;65623;44.498;0.166;2023-05-07T12:44:45;8.77;;;1.53;;
76689;SDS011;65623;44.498;0.166;2023-05-07T12:50:17;5.60;;;1.40;;
76689;SDS011;65623;44.498;0.166;2023-05-07T12:55:50;3.17;;;1.17;;
76689;SDS011;65623;44.498;0.166;2023-05-07T13:01:28;5.67;;;1.53;;
76689;SDS011;65623;44.498;0.166;2023-05-07T13:06:56;4.50;;;1.90;;
76689;SDS011;65623;44.498;0.166;2023-05-07T13:12:29;4.20;;;1.30;;
76689;SDS011;65623;44.498;0.166;2023-05-07T13:18:02;3.87;;;1.80;;
76689;SDS011;65623;44.498;0.166;2023-05-07T13:23:34;3.57;;;0.90;;
76689;SDS011;65623;44.498;0.166;2023-05-07T13:29:07;4.33;;;1.37;;
76689;SDS011;65623;44.498;0.166;2023-05-07T13:34:41;2.83;;;1.17;;
76689;SDS011;65623;44.498;0.166;2023-05-07T13:40:15;5.03;;;1.07;;
76689;SDS011;65623;44.498;0.166;2023-05-07T13:45:48;4.03;;;1.47;;
76689;SDS011;65623;44.498;0.166;2023-05-07T13:51:22;5.70;;;1.50;;
76689;SDS011;65623;44.498;0.166;2023-05-07T13:56:55;5.47;;;0.90;;
76689;SDS011;65623;44.498;0.166;2023-05-07T14:02:28;6.17;;;1.83;;
76689;SDS011;65623;44.498;0.166;2023-05-07T14:08:00;3.90;;;1.17;;
76689;SDS011;65623;44.498;0.166;2023-05-07T14:13:33;4.10;;;1.10;;
76689;SDS011;65623;44.498;0.166;2023-05-07T14:19:07;7.87;;;0.93;;
76689;SDS011;65623;44.498;0.166;2023-05-07T14:24:40;3.13;;;1.07;;
76689;SDS011;65623;44.498;0.166;2023-05-07T14:30:13;5.83;;;1.90;;
76689;SDS011;65623;44.498;0.166;2023-05-07T14:35:46;4.67;;;1.60;;
76689;SDS011;65623;44.498;0.166;2023-05-07T14:41:20;6.17;;;1.23;;
76689;SDS011;65623;44.498;0.166;2023-05-07T14:46:53;5.47;;;1.53;;
76689;SDS011;65623;44.498;0.166;2023-05-07T14:52:26;3.27;;;1.37;;
76689;SDS011;65623;44.498;0.166;2023-05-07T14:58:00;3.83;;;0.90;;
76689;SDS011;65623;44.498;0.166;2023-05-07T15:03:33;4.27;;;1.87;;
76689;SDS011;65623;44.498;0.166;2023-05-07T15:09:05;5.23;;;1.60;;
76689;SDS011;65623;44.498;0.166;2023-05-07T15:14:37;4.83;;;1.37;;
76689;SDS011;65623;44.498;0.166;2023-05-07T15:20:10;6.70;;;1.77;;
76689;SDS011;65623;44.498;0.166;2023-05-07T15:25:43;5.10;;;2.50;;
76689;SDS011;65623;44.498;0.166;2023-05-07T15:31:15;8.73;;;1.83;;
76689;SDS011;65623;44.498;0.166;2023-05-07T15:36:47;7.33;;;1.67;;
76689;SDS011;65623;44.498;0.166;2023-05-07T15:42:19;8.23;;;2.07;;
76689;SDS011;65623;44.498;0.166;2023-05-07T15:47:53;9.70;;;2.50;;
76689;SDS011;65623;44.498;0.166;2023-05-07T15:53:25;6.43;;;1.40;;
76689;SDS011;65623;44.498;0.166;2023-05-07T15:58:58;6.03;;;1.50;;
76689;SDS011;65623;44.498;0.166;2023-05-07T16:04:32;6.23;;;1.57;;
76689;SDS011;65623;44.498;0.166;2023-05-07T16:10:05;7.87;;;1.80;;
76689;SDS011;65623;44.498;0.166;2023-05-07T16:15:36;5.83;;;1.40;;
76689;SDS011;65623;44.498;0.166;2023-05-07T16:21:09;6.63;;;1.70;;
76689;SDS011;65623;44.498;0.166;2023-05-07T16:26:43;7.83;;;1.50;;
76689;SDS011;65623;44.498;0.166;2023-05-07T16:32:16;7.10;;;1.70;;
76689;SDS011;65623;44.498;0.166;2023-05-07T16:37:48;6.07;;;1.50;;
76689;SDS011;65623;44.498;0.166;2023-05-07T16:43:20;8.90;;;1.77;;
76689;SDS011;65623;44.498;0.166;2023-05-07T16:48:54;6.77;;;2.17;;
76689;SDS011;65623;44.498;0.166;2023-05-07T16:59:57;6.73;;;2.27;;
76689;SDS011;65623;44.498;0.166;2023-05-07T17:05:30;7.20;;;1.70;;
76689;SDS011;65623;44.498;0.166;2023-05-07T17:11:03;6.93;;;2.13;;
76689;SDS011;65623;44.498;0.166;2023-05-07T17:16:37;9.30;;;2.33;;
76689;SDS011;65623;44.498;0.166;2023-05-07T17:22:08;12.53;;;1.57;;
76689;SDS011;65623;44.498;0.166;2023-05-07T17:27:42;6.90;;;1.30;;
76689;SDS011;65623;44.498;0.166;2023-05-07T17:33:15;9.90;;;2.30;;
76689;SDS011;65623;44.498;0.166;2023-05-07T17:38:48;10.73;;;2.40;;
76689;SDS011;65623;44.498;0.166;2023-05-07T17:44:21;8.43;;;2.20;;
76689;SDS011;65623;44.498;0.166;2023-05-07T17:49:54;6.03;;;1.50;;
76689;SDS011;65623;44.498;0.166;2023-05-07T17:55:28;13.87;;;2.00;;
76689;SDS011;65623;44.498;0.166;2023-05-07T18:01:01;10.10;;;3.60;;
76689;SDS011;65623;44.498;0.166;2023-05-07T18:06:33;9.67;;;2.27;;
76689;SDS011;65623;44.498;0.166;2023-05-07T18:12:07;12.10;;;2.83;;
76689;SDS011;65623;44.498;0.166;2023-05-07T18:17:39;10.40;;;2.30;;
76689;SDS011;65623;44.498;0.166;2023-05-07T18:23:13;8.67;;;1.53;;
76689;SDS011;65623;44.498;0.166;2023-05-07T18:28:45;12.03;;;2.37;;
76689;SDS011;65623;44.498;0.166;2023-05-07T18:34:18;7.47;;;2.20;;
76689;SDS011;65623;44.498;0.166;2023-05-07T18:39:51;10.03;;;1.63;;
76689;SDS011;65623;44.498;0.166;2023-05-07T18:45:25;7.27;;;1.73;;
76689;SDS011;65623;44.498;0.166;2023-05-07T18:50:57;10.70;;;2.33;;
76689;SDS011;65623;44.498;0.166;2023-05-07T18:56:28;10.93;;;3.37;;
76689;SDS011;65623;44.498;0.166;2023-05-07T19:02:01;11.97;;;2.37;;
76689;SDS011;65623;44.498;0.166;2023-05-07T19:07:33;7.17;;;1.57;;
76689;SDS011;65623;44.498;0.166;2023-05-07T19:13:05;15.67;;;3.30;;
76689;SDS011;65623;44.498;0.166;2023-05-07T19:18:38;9.53;;;1.60;;
76689;SDS011;65623;44.498;0.166;2023-05-07T19:24:11;12.17;;;1.93;;
76689;SDS011;65623;44.498;0.166;2023-05-07T19:29:44;9.07;;;1.93;;
76689;SDS011;65623;44.498;0.166;2023-05-07T19:35:16;12.63;;;1.97;;
76689;SDS011;65623;44.498;0.166;2023-05-07T19:40:49;11.50;;;1.90;;
76689;SDS011;65623;44.498;0.166;2023-05-07T19:46:23;9.33;;;2.23;;
76689;SDS011;65623;44.498;0.166;2023-05-07T19:51:56;6.73;;;2.20;;
76689;SDS011;65623;44.498;0.166;2023-05-07T19:57:28;8.53;;;1.47;;
76689;SDS011;65623;44.498;0.166;2023-05-07T20:03:00;8.57;;;1.90;;
76689;SDS011;65623;44.498;0.166;2023-05-07T20:08:33;10.23;;;1.83;;
76689;SDS011;65623;44.498;0.166;2023-05-07T20:14:05;9.00;;;1.80;;
76689;SDS011;65623;44.498;0.166;2023-05-07T20:19:37;7.03;;;2.57;;
76689;SDS011;65623;44.498;0.166;2023-05-07T20:25:11;8.47;;;1.57;;
76689;SDS011;65623;44.498;0.166;2023-05-07T20:30:43;8.73;;;2.37;;
76689;SDS011;65623;44.498;0.166;2023-05-07T20:36:16;11.20;;;1.83;;
76689;SDS011;65623;44.498;0.166;2023-05-07T20:41:49;4.93;;;1.83;;
76689;SDS011;65623;44.498;0.166;2023-05-07T20:47:23;9.10;;;2.37;;
76689;SDS011;65623;44.498;0.166;2023-05-07T20:52:56;9.77;;;1.77;;
76689;SDS011;65623;44.498;0.166;2023-05-07T20:58:29;8.33;;;1.70;;
76689;SDS011;65623;44.498;0.166;2023-05-07T21:04:02;13.57;;;1.87;;
76689;SDS011;65623;44.498;0.166;2023-05-07T21:09:34;9.27;;;2.10;;
76689;SDS011;65623;44.498;0.166;2023-05-07T21:15:06;5.57;;;2.00;;
76689;SDS011;65623;44.498;0.166;2023-05-07T21:20:39;4.20;;;1.40;;
76689;SDS011;65623;44.498;0.166;2023-05-07T21:26:16;9.70;;;2.30;;
76689;SDS011;65623;44.498;0.166;2023-05-07T21:31:44;6.63;;;1.30;;
76689;SDS011;65623;44.498;0.166;2023-05-07T21:37:17;7.37;;;1.67;;
76689;SDS011;65623;44.498;0.166;2023-05-07T21:42:51;7.97;;;2.47;;
76689;SDS011;65623;44.498;0.166;2023-05-07T21:48:24;6.90;;;1.40;;
76689;SDS011;65623;44.498;0.166;2023-05-07T21:53:57;7.43;;;1.67;;
76689;SDS011;65623;44.498;0.166;2023-05-07T21:59:29;10.70;;;1.90;;
76689;SDS011;65623;44.498;0.166;2023-05-07T22:05:03;6.53;;;1.53;;
76689;SDS011;65623;44.498;0.166;2023-05-07T22:10:35;8.10;;;1.33;;
76689;SDS011;65623;44.498;0.166;2023-05-07T22:16:08;4.90;;;1.07;;
76689;SDS011;65623;44.498;0.166;2023-05-07T22:21:40;6.53;;;1.23;;
76689;SDS011;65623;44.498;0.166;2023-05-07T22:27:12;12.93;;;2.47;;
76689;SDS011;65623;44.498;0.166;2023-05-07T22:32:45;7.93;;;1.73;;
76689;SDS011;65623;44.498;0.166;2023-05-07T22:38:18;3.00;;;1.27;;
76689;SDS011;65623;44.498;0.166;2023-05-07T22:43:51;5.23;;;2.00;;
76689;SDS011;65623;44.498;0.166;2023-05-07T22:49:24;7.27;;;1.90;;
76689;SDS011;65623;44.498;0.166;2023-05-07T22:54:57;4.53;;;2.17;;
76689;SDS011;65623;44.498;0.166;2023-05-07T23:00:30;9.40;;;1.60;;
76689;SDS011;65623;44.498;0.166;2023-05-07T23:06:02;4.47;;;1.57;;
76689;SDS011;65623;44.498;0.166;2023-05-07T23:11:35;6.13;;;1.47;;
76689;SDS011;65623;44.498;0.166;2023-05-07T23:17:08;7.57;;;1.70;;
76689;SDS011;65623;44.498;0.166;2023-05-07T23:22:42;5.07;;;1.80;;
76689;SDS011;65623;44.498;0.166;2023-05-07T23:28:15;6.30;;;2.20;;
76689;SDS011;65623;44.498;0.166;2023-05-07T23:33:48;9.47;;;1.67;;
76689;SDS011;65623;44.498;0.166;2023-05-07T23:39:21;9.90;;;2.70;;
76689;SDS011;65623;44.498;0.166;2023-05-07T23:44:54;9.40;;;1.77;;
76689;SDS011;65623;44.498;0.166;2023-05-07T23:50:27;10.13;;;2.63;;
76689;SDS011;65623;44.498;0.166;2023-05-07T23:55:59;4.53;;;1.83;;
